Airfield :
LOGIN :

Register | Disclaimer

   EN    FR    IT 

 










Legend :    VFR   Marginal VFR   IFR   Intensive IFR   Very Intensive IFR
Visi :
Ceiling :
>= 8 km
>= 3000ft
5 to 8 km
1000 to 3000 ft
1500m to 5 km
500 to 1000 ft
800 to 1500m
200 to 500 ft
< 800m
< 200 ft
Symbols :   Thunderstorms  Fog  Heavy snow  Heavy precipitations  Wind > 20 kt
SIGMETs :     Misc.  Thunderstorms  Icing  Turbulence  Mountain Waves  Volcanic Ashes






- Airport Elevation : 286 ft
- IATA code : FFD


EGVA - RAF Fairford

CURRENT METAR :
  • 101756Z AUTO 05012KT 9999 BKN015 OVC022 04/03 A2991 RMK AO2 RAB00E18RAB23E33RAB37E52 BKN V OVC SLP135 P0000 60002 T00380026 10074 20038 53004 $

EXPIRED METARs :
  • 101737Z AUTO 04013KT 9999 -RA OVC016 04/03 A2991 RMK AO2 RAB00E18RAB23E33RAB37 SLP135 $
  • 101723Z AUTO 05011KT 9999 -RA OVC016 04/03 A2991 RMK AO2 RAB00E18RAB23 SLP135 $
  • 101700Z AUTO 06010KT 9999 -RA BKN017 BKN027 OVC033 04/03 A2990 RMK AO2 RAB00 CIG 017V027 BKN017 V SCT CIG 016 RWY09 SLP132 $
  • 101635Z AUTO 08012KT 9999 SCT019 BKN075 04/03 A2989 RMK AO2 RAE01RAB05E20RAB25E35 SLP129 $
  • 101625Z AUTO 07015KT 9999 -RA SCT019 SCT023 05/03 A2989 RMK AO2 RAE01RAB05E20RAB25 SLP128 $
  • 101620Z AUTO 06014KT 9999 FEW017 SCT023 05/03 A2989 RMK AO2 RAE01RAB05E20 SLP128 $
  • 101605Z AUTO 07011KT 9999 -RA FEW016 SCT023 05/03 A2989 RMK AO2 RAE01RAB05 SLP128 $
  • 101601Z AUTO 06012KT 9999 SCT021 05/03 A2989 RMK AO2 RAE01 SLP128 $
  • 101549Z AUTO 07011KT 9999 -RA FEW018 05/04 A2989 RMK AO2 RAB16E46RAB49 SLP128 $
  • 101531Z AUTO 08013KT 9999 -RA SCT019 05/03 A2990 RMK AO2 RAB16 SLP132 $
  • 101516Z AUTO 08009KT 9999 -RA SCT018 05/04 A2990 RMK AO2 RAB16 SLP132 $

Expired Forecast.



MET'MAP, your aeronautical weather chart ! - Copyright ORBIFLY December 2007 - Disclaimer

ORBIFLY MET'MAP TEAM :

Programming & Development : Alexandra Zaïnal
Concept & original design : Baudouin d'Aumeries
Assistance for programming : Marc-Olivier Méhu
Technical & hardware support : Manuel Goepfert

Contact : metmap@orbifly.com




SOURCES & CREDITS :

   NOAA